CDT,Max TemperatureF,Mean TemperatureF,Min TemperatureF,Max Dew PointF,MeanDew PointF,Min DewpointF,Max Humidity, Mean Humidity, Min Humidity, Max Sea Level PressureIn, Mean Sea Level PressureIn, Min Sea Level PressureIn, Max VisibilityMiles, Mean VisibilityMiles, Min VisibilityMiles, Max Wind SpeedMPH, Mean Wind SpeedMPH, Max Gust SpeedMPH,PrecipitationIn, CloudCover, Events, WindDirDegrees
2011-10-1,76,56,36,37,34,30,82,53,23,30.23,30.13,30.03,,,,21,10,29,0.00,,,171
2011-10-2,86,66,46,42,39,36,71,45,19,30.04,29.99,29.93,,,,16,9,23,0.00,,,176
2011-10-3,85,67,48,43,40,39,71,46,20,30.05,30.00,29.97,,,,25,11,36,0.00,,,169
2011-10-4,86,67,48,47,43,40,71,47,23,30.01,29.93,29.84,,,,20,9,28,0.00,,,173
2011-10-5,87,73,58,46,42,37,60,40,20,29.87,29.82,29.78,,,,28,14,38,0.00,,,200
2011-10-6,82,67,51,43,40,38,63,43,23,29.86,29.78,29.68,,,,33,16,46,0.00,,,171
2011-10-7,77,69,60,55,44,31,72,49,25,29.76,29.64,29.59,,,,33,16,45,0.07,,,200
2011-10-8,67,61,55,48,45,32,77,56,35,30.15,29.98,29.77,,,,13,5,16,0.00,,,332
2011-10-9,67,60,52,60,53,48,100,89,77,30.21,30.10,29.96,,,,10,3,14,0.18,,,350
2011-10-10,65,58,50,56,50,47,93,77,60,29.94,29.85,29.76,,,,22,9,31,0.15,,,187
2011-10-11,77,62,47,51,47,42,93,62,31,29.76,29.70,29.64,,,,21,8,26,0.02,,,201
2011-10-12,70,62,54,55,50,44,93,69,45,29.71,29.67,29.62,,,,18,8,25,0.23,,,282
2011-10-13,62,52,42,45,42,38,93,68,42,29.76,29.73,29.66,,,,46,12,58,0.25,,,333
2011-10-14,55,49,42,44,41,35,86,73,59,29.93,29.84,29.73,,,,23,15,31,0.08,,,324
2011-10-15,56,47,38,40,36,33,82,65,47,29.95,29.90,29.86,,,,16,9,22,0.01,,,310
2011-10-16,54,48,42,37,33,29,82,62,41,29.98,29.94,29.89,,,,28,16,37,0.00,,,317
2011-10-17,59,47,34,29,28,24,64,45,26,30.01,29.95,29.90,,,,29,15,36,0.00,,,323
2011-10-18,49,38,26,31,26,21,82,58,34,30.22,30.13,30.03,,,,25,14,30,0.00,,,349
2011-10-19,47,36,25,28,25,20,88,69,49,30.27,30.22,30.17,,,,17,9,21,0.00,,,357
2011-10-20,53,38,22,33,27,21,96,70,44,30.17,30.09,30.02,,,,8,4,13,0.00,,,327
2011-10-21,63,47,30,39,34,27,85,62,39,30.09,30.00,29.94,,,,22,10,26,0.00,,,298
2011-10-22,65,48,31,44,36,28,92,65,37,30.14,30.02,29.82,,,,25,9,31,0.00,,,221
2011-10-23,59,50,40,44,38,35,79,61,43,29.95,29.85,29.78,,,,26,10,31,0.00,,,305
2011-10-24,56,46,35,41,38,34,92,74,55,30.03,29.98,29.94,,,,18,5,22,0.00,,,15
2011-10-25,49,44,39,42,39,34,89,80,70,30.08,30.01,29.93,,,,15,5,18,0.00,,,11
2011-10-26,51,42,33,38,33,27,92,67,42,30.17,30.12,30.07,,,,18,9,23,0.00,,,331
2011-10-27,52,40,27,31,25,20,85,57,28,30.12,30.07,30.00,,,,14,6,18,0.00,,,269
2011-10-28,52,41,29,30,25,22,76,54,32,30.12,30.08,30.00,,,,24,11,30,0.00,,,323
2011-10-29,52,37,22,29,23,20,85,58,30,30.08,29.94,29.80,,,,18,8,24,0.00,,,176
2011-10-30,45,37,28,39,32,25,85,70,54,30.04,29.92,29.79,,,,24,14,30,0.05,,,324
2011-10-31,62,46,29,32,28,26,85,55,25,30.04,29.89,29.73,,,,21,11,29,0.00,,,208